Time;durP1;ratioP1;P1;durP2;ratioP2;P2;SDS_P1;SDS_P2;PMS_P1;PMS_P2;Temp;Humidity;BMP_temperature;BMP_pressure;BME280_temperature;BME280_humidity;BME280_pressure;Samples;Min_cycle;Max_cycle;Signal;HPM_P1;HPM_P2
2022/04/09 00:00:48;;;;;;;14.57;5.85;;;;;;;4.52;74.46;100337.75;5070808;28;20033;-68
2022/04/09 00:03:13;;;;;;;16.60;5.93;;;;;;;4.49;74.43;100337.91;5070173;28;20067;-68
2022/04/09 00:05:39;;;;;;;16.45;6.18;;;;;;;4.41;75.30;100350.56;5051931;28;20098;-68
2022/04/09 00:08:06;;;;;;;14.73;6.20;;;;;;;4.33;75.67;100354.41;5069796;28;20064;-68
2022/04/09 00:10:32;;;;;;;20.02;6.00;;;;;;;4.33;75.71;100357.03;5075979;28;20546;-68
2022/04/09 00:12:57;;;;;;;25.10;7.43;;;;;;;4.32;76.49;100354.47;5073644;28;20107;-68
2022/04/09 00:15:23;;;;;;;19.23;6.43;;;;;;;4.24;75.64;100356.59;5071485;28;20111;-68
2022/04/09 00:17:49;;;;;;;26.27;7.53;;;;;;;4.29;76.01;100371.28;5076909;28;20037;-68
2022/04/09 00:20:18;;;;;;;15.82;6.75;;;;;;;4.27;75.78;100375.75;5070719;28;20043;-68
2022/04/09 00:22:46;;;;;;;17.02;6.32;;;;;;;4.27;75.91;100377.53;5070514;28;20025;-68
2022/04/09 00:25:14;;;;;;;25.77;7.35;;;;;;;4.28;75.72;100384.50;5070964;28;20806;-68
2022/04/09 00:27:42;;;;;;;19.65;6.68;;;;;;;4.25;76.48;100385.47;5080888;28;20470;-68
2022/04/09 00:30:09;;;;;;;20.75;6.70;;;;;;;4.26;75.84;100392.44;5083649;28;20303;-68
2022/04/09 00:32:35;;;;;;;19.40;6.70;;;;;;;4.22;76.18;100392.66;5070957;28;20398;-68
2022/04/09 00:35:03;;;;;;;22.50;6.90;;;;;;;4.20;76.69;100399.75;5069802;28;20032;-68
2022/04/09 00:37:29;;;;;;;15.73;5.70;;;;;;;4.18;76.41;100399.84;5074187;28;20029;-68
2022/04/09 00:39:55;;;;;;;19.20;6.90;;;;;;;4.14;76.80;100403.50;5081590;28;20118;-68
2022/04/09 00:42:21;;;;;;;20.77;5.63;;;;;;;4.21;76.71;100404.13;5070128;28;20166;-68
2022/04/09 00:44:46;;;;;;;21.75;7.75;;;;;;;4.25;75.99;100409.16;5052818;28;20025;-68
2022/04/09 00:47:12;;;;;;;27.85;6.93;;;;;;;4.16;76.28;100414.84;5069721;28;20035;-68
2022/04/09 00:49:40;;;;;;;18.92;7.03;;;;;;;4.17;76.39;100413.06;5070917;28;20033;-68
2022/04/09 00:52:07;;;;;;;20.00;6.50;;;;;;;4.17;76.64;100423.59;5071704;28;20052;-68
2022/04/09 00:54:41;;;;;;;25.63;7.45;;;;;;;4.15;76.61;100428.94;5085460;28;20019;-68
2022/04/09 00:57:08;;;;;;;26.35;7.47;;;;;;;4.06;76.22;100431.97;5076943;28;20082;-68
2022/04/09 00:59:38;;;;;;;26.92;6.93;;;;;;;4.10;77.14;100439.63;5070032;28;20052;-68
2022/04/09 01:02:06;;;;;;;17.63;7.05;;;;;;;4.11;76.74;100437.84;5072906;28;20040;-68
2022/04/09 01:04:33;;;;;;;26.38;6.85;;;;;;;4.10;76.55;100444.91;5070826;28;20024;-68
2022/04/09 01:07:00;;;;;;;17.75;6.57;;;;;;;4.12;75.95;100450.13;5082811;28;20115;-68
2022/04/09 01:09:25;;;;;;;17.77;6.18;;;;;;;4.03;76.60;100437.31;5071638;28;20024;-68
2022/04/09 01:11:51;;;;;;;26.23;6.53;;;;;;;4.10;76.60;100459.84;5084456;28;20073;-68
2022/04/09 01:14:17;;;;;;;20.60;6.88;;;;;;;4.06;75.87;100466.16;5082687;28;20089;-68
2022/04/09 01:16:43;;;;;;;21.45;7.15;;;;;;;4.04;76.07;100465.38;5070216;28;20467;-68
2022/04/09 01:19:08;;;;;;;21.80;6.68;;;;;;;4.05;76.08;100470.56;5068502;28;20044;-68
2022/04/09 01:21:34;;;;;;;20.42;7.40;;;;;;;3.99;75.97;100475.22;5059418;28;20040;-68
2022/04/09 01:24:01;;;;;;;21.02;6.53;;;;;;;4.04;76.01;100486.41;5071206;28;20033;-68
2022/04/09 01:26:26;;;;;;;24.23;7.25;;;;;;;4.04;76.03;100486.41;5052173;28;20123;-68
2022/04/09 01:28:55;;;;;;;18.00;6.35;;;;;;;4.00;76.94;100496.22;5069393;28;20107;-68
2022/04/09 01:31:22;;;;;;;24.73;6.90;;;;;;;3.97;75.91;100500.72;5066289;28;20119;-68
2022/04/09 01:33:48;;;;;;;20.55;7.03;;;;;;;3.94;76.50;100499.13;5072689;28;20115;-68
2022/04/09 01:36:14;;;;;;;21.00;6.75;;;;;;;3.95;76.91;100500.81;5088945;28;20127;-68
2022/04/09 01:38:42;;;;;;;24.05;6.60;;;;;;;3.97;76.34;100506.88;5090568;28;20028;-68
2022/04/09 01:41:08;;;;;;;22.50;6.65;;;;;;;3.93;77.16;100507.91;5094267;28;20467;-68
2022/04/09 01:43:34;;;;;;;20.65;6.80;;;;;;;3.92;76.41;100516.72;5073880;28;20036;-68
2022/04/09 01:46:00;;;;;;;26.20;6.55;;;;;;;3.94;76.94;100524.53;5073907;28;20453;-68
2022/04/09 01:48:25;;;;;;;21.63;7.35;;;;;;;3.91;76.26;100528.16;5079068;28;20123;-68
2022/04/09 01:50:51;;;;;;;23.38;6.55;;;;;;;3.86;76.83;100525.72;5079044;28;20029;-68
2022/04/09 01:53:16;;;;;;;20.48;7.40;;;;;;;3.85;76.88;100537.16;5088015;28;20024;-68
2022/04/09 01:55:45;;;;;;;19.60;7.15;;;;;;;3.90;76.47;100539.59;5081728;28;20479;-68
2022/04/09 01:58:11;;;;;;;23.10;6.35;;;;;;;3.82;76.84;100549.56;5074764;28;20480;-68
2022/04/09 02:00:39;;;;;;;20.80;6.40;;;;;;;3.72;76.66;100541.19;5074317;28;20047;-68
2022/04/09 02:03:07;;;;;;;19.33;6.63;;;;;;;3.74;77.80;100554.31;5073750;28;20044;-68
2022/04/09 02:05:34;;;;;;;20.00;6.72;;;;;;;3.73;77.22;100555.19;5071169;28;20036;-68
2022/04/09 02:08:00;;;;;;;18.17;6.13;;;;;;;3.68;77.87;100554.50;5091231;28;20027;-68
2022/04/09 02:10:27;;;;;;;20.92;6.50;;;;;;;3.66;77.57;100557.22;5091923;28;20034;-68
2022/04/09 02:12:55;;;;;;;19.58;6.18;;;;;;;3.63;77.43;100558.19;5075855;28;20032;-68
2022/04/09 02:15:21;;;;;;;20.48;6.20;;;;;;;3.62;77.83;100568.78;5090334;28;20032;-68
2022/04/09 02:17:47;;;;;;;16.65;6.47;;;;;;;3.58;77.79;100568.03;5058213;28;20036;-68
2022/04/09 02:20:14;;;;;;;19.38;6.68;;;;;;;3.59;78.36;100575.00;5072483;28;20109;-68
2022/04/09 02:22:42;;;;;;;22.98;6.20;;;;;;;3.60;77.59;100587.22;5073571;28;20039;-68
2022/04/09 02:25:09;;;;;;;19.85;6.53;;;;;;;3.55;78.06;100583.06;5082001;28;20471;-68
2022/04/09 02:27:40;;;;;;;22.45;6.93;;;;;;;3.46;78.19;100576.38;5082204;28;20031;-68
2022/04/09 02:30:08;;;;;;;19.52;6.15;;;;;;;3.48;78.09;100592.97;5083371;28;20028;-67
2022/04/09 02:32:51;;;;;;;24.10;6.68;;;;;;;3.52;78.09;100593.69;5073164;28;20050;-68
2022/04/09 02:35:20;;;;;;;22.02;7.32;;;;;;;3.51;78.12;100594.63;5074315;28;20119;-68
2022/04/09 02:37:45;;;;;;;15.30;6.35;;;;;;;3.50;77.78;100595.53;5088182;28;20125;-68
2022/04/09 02:40:12;;;;;;;21.38;6.55;;;;;;;3.52;77.39;100598.97;5086442;28;20733;-68
2022/04/09 02:42:41;;;;;;;24.48;6.32;;;;;;;3.52;77.82;100599.81;5082618;28;20039;-68
2022/04/09 02:45:08;;;;;;;19.08;7.07;;;;;;;3.52;77.92;100606.84;5085267;28;20472;-68
2022/04/09 02:47:35;;;;;;;18.17;6.78;;;;;;;3.52;77.88;100614.72;5072976;28;20070;-68
2022/04/09 02:50:01;;;;;;;17.17;6.35;;;;;;;3.49;78.19;100618.34;5081610;28;20020;-68
2022/04/09 02:52:34;;;;;;;17.98;5.97;;;;;;;3.53;78.28;100624.31;5077175;28;20032;-68
2022/04/09 02:55:02;;;;;;;16.40;5.93;;;;;;;3.57;78.04;100620.69;5075622;28;20474;-68
2022/04/09 02:57:31;;;;;;;21.48;6.47;;;;;;;3.57;77.58;100631.19;5078144;28;20376;-68
2022/04/09 02:59:57;;;;;;;19.50;5.97;;;;;;;3.64;76.99;100637.94;5086318;28;20048;-68
2022/04/09 03:02:22;;;;;;;20.17;6.47;;;;;;;3.63;77.65;100642.34;5085144;28;20082;-68
2022/04/09 03:04:48;;;;;;;14.50;6.13;;;;;;;3.67;76.79;100647.47;5074298;28;20509;-68
2022/04/09 03:07:14;;;;;;;17.00;6.00;;;;;;;3.69;76.46;100650.91;5070671;28;20070;-68
2022/04/09 03:09:39;;;;;;;18.25;5.75;;;;;;;3.68;76.43;100657.06;5084448;28;20440;-68
2022/04/09 03:12:08;;;;;;;19.23;6.28;;;;;;;3.65;76.18;100655.44;5071950;28;20033;-68
2022/04/09 03:14:34;;;;;;;23.10;5.82;;;;;;;3.67;75.61;100658.00;5073156;28;20086;-68
2022/04/09 03:17:00;;;;;;;19.75;6.63;;;;;;;3.59;75.96;100658.31;5089471;28;20086;-68
2022/04/09 03:19:26;;;;;;;17.88;5.97;;;;;;;3.56;76.36;100659.28;5075272;28;20495;-69
2022/04/09 03:21:54;;;;;;;15.93;6.10;;;;;;;3.52;76.67;100659.44;5072500;28;20020;-69
2022/04/09 03:24:23;;;;;;;14.98;6.53;;;;;;;3.50;76.40;100661.25;5072420;28;20122;-69
2022/04/09 03:26:49;;;;;;;15.32;6.25;;;;;;;3.51;75.83;100658.59;5072216;28;20024;-69
2022/04/09 03:29:19;;;;;;;17.65;6.13;;;;;;;3.37;77.08;100674.84;5072323;28;20016;-68
2022/04/09 03:31:44;;;;;;;20.30;6.30;;;;;;;3.35;76.58;100668.81;5087454;28;20028;-69
2022/04/09 03:34:10;;;;;;;19.27;6.63;;;;;;;3.31;76.87;100675.06;5071319;28;20097;-69
2022/04/09 03:36:37;;;;;;;19.92;6.50;;;;;;;3.26;76.78;100678.78;5076420;28;20036;-69
2022/04/09 03:39:03;;;;;;;18.50;6.82;;;;;;;3.14;77.37;100678.28;5072037;28;20443;-69
2022/04/09 03:41:31;;;;;;;18.35;5.97;;;;;;;3.18;77.26;100684.31;5070540;28;20043;-69
2022/04/09 03:43:58;;;;;;;23.90;6.60;;;;;;;3.14;77.66;100682.69;5071018;28;20124;-69
2022/04/09 03:46:24;;;;;;;15.25;6.50;;;;;;;3.10;77.58;100689.81;5073937;28;20032;-69
2022/04/09 03:48:51;;;;;;;19.42;7.10;;;;;;;3.11;77.69;100690.69;5074317;28;20032;-69
2022/04/09 03:51:17;;;;;;;20.00;6.45;;;;;;;3.08;77.87;100686.38;5083574;28;20089;-69
2022/04/09 03:53:43;;;;;;;15.13;6.07;;;;;;;3.03;78.22;100701.47;5088841;28;20028;-69
2022/04/09 03:56:11;;;;;;;17.05;5.95;;;;;;;3.03;77.97;100698.84;5075319;28;20399;-69
2022/04/09 03:58:37;;;;;;;11.75;5.40;;;;;;;2.95;78.39;100701.72;5071754;28;20036;-69
2022/04/09 04:01:03;;;;;;;18.63;6.38;;;;;;;2.92;78.58;100699.19;5075208;28;20032;-69
2022/04/09 04:03:29;;;;;;;18.55;6.47;;;;;;;2.91;78.55;100702.75;5075235;28;20039;-69
2022/04/09 04:05:54;;;;;;;18.83;6.32;;;;;;;2.92;78.98;100716.72;5076751;28;20044;-69
2022/04/09 04:08:20;;;;;;;15.02;6.18;;;;;;;2.90;78.46;100724.66;5071727;28;20036;-69
2022/04/09 04:10:48;;;;;;;17.50;6.45;;;;;;;2.89;78.81;100722.09;5075204;28;20025;-69
2022/04/09 04:13:18;;;;;;;23.00;6.47;;;;;;;2.90;78.33;100715.91;5069849;28;20032;-69
2022/04/09 04:15:44;;;;;;;20.15;6.72;;;;;;;2.91;78.55;100718.50;5068974;28;20114;-69
2022/04/09 04:18:09;;;;;;;13.65;6.38;;;;;;;2.92;78.20;100729.88;5078060;28;20019;-69
2022/04/09 04:20:35;;;;;;;16.75;6.05;;;;;;;2.94;78.36;100746.41;5073913;28;20747;-69
2022/04/09 04:23:03;;;;;;;19.20;6.80;;;;;;;2.87;78.00;100743.13;5076800;28;20433;-69
2022/04/09 04:25:28;;;;;;;15.15;6.25;;;;;;;2.86;78.50;100741.44;5081303;28;20035;-69
2022/04/09 04:27:56;;;;;;;16.42;5.95;;;;;;;2.84;78.55;100755.53;5071393;28;20024;-69
2022/04/09 04:30:22;;;;;;;16.88;5.60;;;;;;;2.81;78.91;100747.75;5076992;28;20475;-69
2022/04/09 04:32:47;;;;;;;14.52;5.10;;;;;;;2.77;78.81;100740.88;5072248;28;20035;-69
2022/04/09 04:35:13;;;;;;;18.27;6.65;;;;;;;2.79;79.72;100746.94;5070951;28;20032;-69
2022/04/09 04:37:47;;;;;;;17.17;6.22;;;;;;;2.79;79.71;100763.53;5070303;28;20085;-69
2022/04/09 04:40:15;;;;;;;23.02;5.70;;;;;;;2.80;79.25;100762.66;5070896;28;20554;-69
2022/04/09 04:42:40;;;;;;;19.65;5.97;;;;;;;2.84;79.63;100759.00;5068295;28;20567;-69
2022/04/09 04:45:06;;;;;;;16.08;6.30;;;;;;;2.79;79.29;100754.81;5070019;28;20103;-69
2022/04/09 04:47:32;;;;;;;21.13;6.90;;;;;;;2.82;79.40;100768.69;5078176;28;20513;-69
2022/04/09 04:49:57;;;;;;;16.63;6.20;;;;;;;2.84;78.89;100766.88;5077701;28;20017;-69
2022/04/09 04:52:25;;;;;;;16.73;6.07;;;;;;;2.83;79.29;100778.31;5074617;28;20051;-69
2022/04/09 04:54:51;;;;;;;19.60;5.85;;;;;;;2.83;79.77;100785.34;5070630;28;20041;-69
2022/04/09 04:57:16;;;;;;;20.33;6.95;;;;;;;2.86;79.47;100791.34;5070339;28;20021;-68
2022/04/09 04:59:42;;;;;;;19.10;6.07;;;;;;;2.89;79.54;100791.25;5072451;28;20499;-68
2022/04/09 05:02:07;;;;;;;16.08;6.32;;;;;;;2.89;78.86;100791.25;5054801;28;20119;-68
2022/04/09 05:04:33;;;;;;;16.30;5.88;;;;;;;2.87;79.22;100794.81;5070171;28;20055;-68
2022/04/09 05:06:59;;;;;;;18.70;6.90;;;;;;;2.89;79.04;100798.25;5052385;28;20081;-68
2022/04/09 05:09:25;;;;;;;17.88;6.15;;;;;;;2.87;79.38;100803.56;5086913;28;20032;-68
2022/04/09 05:11:51;;;;;;;17.40;6.97;;;;;;;2.91;79.42;100802.56;5069734;28;20023;-68
2022/04/09 05:14:19;;;;;;;20.20;6.40;;;;;;;2.91;79.07;100810.44;5082721;28;20494;-68
2022/04/09 05:16:44;;;;;;;14.40;6.00;;;;;;;2.94;78.96;100815.59;5089743;28;20024;-68
2022/04/09 05:19:10;;;;;;;19.60;6.25;;;;;;;2.94;79.19;100818.22;5078468;28;20031;-68
2022/04/09 05:21:36;;;;;;;18.45;6.50;;;;;;;2.97;78.97;100833.00;5067472;28;20024;-68
2022/04/09 05:24:02;;;;;;;19.52;6.00;;;;;;;3.01;78.66;100833.78;5079285;28;20051;-68
2022/04/09 05:26:28;;;;;;;17.80;6.00;;;;;;;3.04;78.82;100831.06;5070839;28;20024;-68
2022/04/09 05:28:54;;;;;;;19.23;6.63;;;;;;;2.98;78.63;100826.84;5069383;28;20035;-68
2022/04/09 05:31:27;;;;;;;19.50;6.93;;;;;;;3.04;79.29;100837.16;5053076;28;20035;-68
2022/04/09 05:33:54;;;;;;;21.55;6.97;;;;;;;3.02;79.03;100851.25;5069363;28;20503;-69
2022/04/09 05:36:20;;;;;;;17.98;6.25;;;;;;;3.03;79.24;100845.97;5077784;28;20399;-68
2022/04/09 05:38:45;;;;;;;23.38;7.25;;;;;;;3.11;79.32;100859.69;5090746;28;20028;-68
2022/04/09 05:41:12;;;;;;;13.63;6.53;;;;;;;3.16;78.85;100863.03;5073855;28;20363;-68
2022/04/09 05:43:39;;;;;;;19.33;7.30;;;;;;;3.15;78.91;100861.34;5071243;28;20036;-68
2022/04/09 05:46:05;;;;;;;22.50;6.93;;;;;;;3.13;78.96;100859.66;5078310;28;20106;-68
2022/04/09 05:48:31;;;;;;;23.48;6.85;;;;;;;3.25;79.06;100874.19;5084515;28;20033;-68
2022/04/09 05:50:56;;;;;;;20.02;6.57;;;;;;;3.31;79.21;100880.09;5076988;28;20417;-68
2022/04/09 05:53:25;;;;;;;21.77;6.60;;;;;;;3.44;78.58;100887.56;5090970;28;20024;-68
2022/04/09 05:55:50;;;;;;;16.55;6.53;;;;;;;3.48;79.27;100887.44;5071696;28;20037;-68
2022/04/09 05:58:16;;;;;;;17.73;6.10;;;;;;;3.53;78.83;100882.00;5070333;28;20030;-68
2022/04/09 06:00:43;;;;;;;24.83;7.10;;;;;;;3.63;78.05;100897.44;5068925;28;20052;-68
2022/04/09 06:03:11;;;;;;;19.45;6.78;;;;;;;3.67;79.06;100899.94;5070978;28;20052;-68
2022/04/09 06:05:37;;;;;;;20.02;7.10;;;;;;;3.72;78.32;100891.00;5070142;28;20021;-68
2022/04/09 06:08:03;;;;;;;17.50;6.65;;;;;;;3.81;78.73;100908.25;5061862;28;20090;-69
2022/04/09 06:10:28;;;;;;;18.90;6.40;;;;;;;3.85;77.50;100913.34;5076842;28;20052;-68
2022/04/09 06:12:56;;;;;;;17.15;6.43;;;;;;;3.89;77.64;100908.00;5068833;28;20442;-68
2022/04/09 06:15:22;;;;;;;18.45;6.68;;;;;;;3.97;77.80;100912.06;5084928;28;20024;-68
2022/04/09 06:17:49;;;;;;;20.98;7.40;;;;;;;4.02;77.62;100914.53;5069357;28;20475;-68
2022/04/09 06:20:17;;;;;;;18.65;6.95;;;;;;;4.02;77.56;100906.63;5070110;28;20020;-68
2022/04/09 06:22:42;;;;;;;21.77;6.90;;;;;;;4.16;77.00;100922.81;5068613;28;20048;-68
2022/04/09 06:25:13;;;;;;;19.20;6.68;;;;;;;4.22;77.04;100927.00;5071570;28;20471;-68
2022/04/09 06:27:40;;;;;;;18.73;6.47;;;;;;;4.30;76.33;100931.06;5072404;28;20436;-68
2022/04/09 06:30:07;;;;;;;18.23;6.22;;;;;;;4.43;76.30;100933.25;5074126;28;20031;-68
2022/04/09 06:32:35;;;;;;;20.55;6.20;;;;;;;4.55;76.21;100935.44;5073904;28;20059;-68
2022/04/09 06:35:03;;;;;;;18.20;6.80;;;;;;;4.73;75.81;100942.66;5072370;28;20021;-68
2022/04/09 06:37:30;;;;;;;20.65;7.00;;;;;;;4.92;75.80;100950.75;5072919;28;20030;-68
2022/04/09 06:39:56;;;;;;;13.77;6.20;;;;;;;4.98;74.67;100950.50;5073894;28;20020;-69
2022/04/09 06:42:25;;;;;;;23.33;5.90;;;;;;;4.96;74.60;100954.97;5055871;28;20394;-68
2022/04/09 06:44:53;;;;;;;19.90;6.40;;;;;;;4.97;74.94;100945.28;5074244;28;20017;-68
2022/04/09 06:47:19;;;;;;;16.00;5.82;;;;;;;5.31;74.42;100959.81;5072577;28;20120;-68
2022/04/09 06:49:44;;;;;;;15.95;6.47;;;;;;;5.51;74.70;100951.94;5055330;28;20391;-68
2022/04/09 06:52:12;;;;;;;13.85;6.20;;;;;;;5.76;74.10;100962.34;5072200;28;20032;-68
2022/04/09 06:54:39;;;;;;;20.10;6.15;;;;;;;5.94;73.25;100966.03;5073716;28;20056;-68
2022/04/09 06:57:07;;;;;;;18.60;5.88;;;;;;;6.02;71.91;100963.94;5073416;28;20051;-68
2022/04/09 06:59:32;;;;;;;17.52;5.43;;;;;;;5.97;72.21;100973.84;5096894;28;20040;-68
2022/04/09 07:01:58;;;;;;;19.90;6.65;;;;;;;5.87;72.71;100973.31;5092516;28;20085;-68
2022/04/09 07:04:24;;;;;;;15.63;5.93;;;;;;;5.75;72.26;100976.47;5092202;28;20032;-68
2022/04/09 07:06:49;;;;;;;16.50;5.60;;;;;;;5.63;73.12;100985.75;5087333;28;20111;-68
2022/04/09 07:09:15;;;;;;;18.70;5.47;;;;;;;5.55;73.84;100981.69;5073377;28;20036;-68
2022/04/09 07:11:41;;;;;;;17.38;5.90;;;;;;;5.48;73.23;100994.28;5073060;28;20037;-69
2022/04/09 07:14:06;;;;;;;14.68;5.65;;;;;;;5.41;73.33;100993.69;5088213;28;20036;-68
2022/04/09 07:16:32;;;;;;;24.77;6.65;;;;;;;5.45;73.57;100997.91;5092097;28;20483;-68
2022/04/09 07:18:57;;;;;;;14.10;6.15;;;;;;;5.45;73.33;100999.69;5072225;28;20056;-68
2022/04/09 07:21:23;;;;;;;20.05;5.65;;;;;;;5.52;73.70;101006.41;5071957;28;20029;-68
2022/04/09 07:23:49;;;;;;;21.50;6.38;;;;;;;5.65;73.90;101005.03;5082473;28;20129;-69
2022/04/09 07:26:18;;;;;;;18.20;6.50;;;;;;;5.72;72.68;101007.41;5091835;28;20036;-68
2022/04/09 07:28:43;;;;;;;22.52;6.43;;;;;;;5.86;72.59;101013.84;5093053;28;20097;-68
2022/04/09 07:31:09;;;;;;;18.70;6.15;;;;;;;6.00;71.99;101012.44;5093237;28;20500;-69
2022/04/09 07:33:34;;;;;;;18.75;5.97;;;;;;;6.16;71.58;101020.59;5084364;28;20492;-68
2022/04/09 07:36:00;;;;;;;17.80;5.82;;;;;;;6.18;71.66;101009.06;5068339;28;20024;-69
2022/04/09 07:38:25;;;;;;;15.45;5.95;;;;;;;6.44;71.59;101022.91;5082058;28;20074;-69
2022/04/09 07:40:51;;;;;;;26.55;6.22;;;;;;;6.58;70.66;101028.47;5071480;28;20506;-69
2022/04/09 07:43:19;;;;;;;23.17;6.38;;;;;;;6.74;69.94;101028.66;5055280;28;20056;-69
2022/04/09 07:45:47;;;;;;;20.60;6.10;;;;;;;6.85;69.21;101031.66;5072474;28;20036;-69
2022/04/09 07:48:13;;;;;;;19.00;5.93;;;;;;;7.03;69.48;101025.56;5072434;28;20047;-69
2022/04/09 07:50:39;;;;;;;19.13;6.47;;;;;;;7.21;68.54;101030.94;5072216;28;20475;-69
2022/04/09 07:53:05;;;;;;;19.77;5.90;;;;;;;7.36;67.42;101027.59;5079410;28;20688;-69
2022/04/09 07:55:33;;;;;;;19.98;5.90;;;;;;;7.45;66.96;101021.00;5080456;28;20032;-69
2022/04/09 07:57:59;;;;;;;14.65;5.50;;;;;;;7.61;67.09;101029.06;5076009;28;20020;-69
2022/04/09 08:00:25;;;;;;;15.82;5.82;;;;;;;7.69;65.92;101032.22;5096111;28;20044;-69
2022/04/09 08:02:50;;;;;;;15.38;5.35;;;;;;;7.87;65.75;101041.03;5054400;28;20032;-69
2022/04/09 08:05:18;;;;;;;17.67;6.03;;;;;;;8.10;66.24;101040.78;5091779;28;20028;-69
2022/04/09 08:07:44;;;;;;;15.77;5.57;;;;;;;8.26;62.97;101038.19;5070145;28;20036;-70
2022/04/09 08:10:11;;;;;;;14.85;4.78;;;;;;;8.22;62.04;101025.19;5087811;28;20019;-69
2022/04/09 08:12:41;;;;;;;14.63;4.95;;;;;;;8.43;61.92;101041.84;5073559;28;20441;-70
2022/04/09 08:15:12;;;;;;;13.23;5.38;;;;;;;8.60;61.59;101047.13;5070719;28;20498;-70
2022/04/09 08:17:41;;;;;;;11.75;4.57;;;;;;;8.46;59.76;101045.19;5071848;28;20107;-70
2022/04/09 08:20:08;;;;;;;12.33;5.03;;;;;;;8.59;60.88;101045.44;5071738;28;20384;-70
2022/04/09 08:22:34;;;;;;;12.82;4.90;;;;;;;8.60;58.79;101049.78;5086493;28;20462;-70
2022/04/09 08:25:01;;;;;;;10.15;4.97;;;;;;;8.76;57.79;101050.69;5071858;28;20052;-70
2022/04/09 08:27:26;;;;;;;19.25;4.68;;;;;;;8.87;56.65;101048.34;5071866;28;20088;-70
2022/04/09 08:29:54;;;;;;;11.93;4.43;;;;;;;8.83;57.23;101057.41;5071691;28;20119;-70
2022/04/09 08:32:22;;;;;;;11.18;4.40;;;;;;;9.10;57.13;101054.22;5053608;28;20060;-69
2022/04/09 08:34:48;;;;;;;13.73;4.07;;;;;;;9.19;53.87;101064.34;5071838;28;20020;-70
2022/04/09 08:37:13;;;;;;;13.45;4.55;;;;;;;9.20;54.86;101060.72;5069768;28;20479;-70
2022/04/09 08:39:43;;;;;;;12.63;4.53;;;;;;;9.34;55.42;101067.97;5070643;28;20060;-69
2022/04/09 08:42:10;;;;;;;11.48;4.13;;;;;;;9.41;53.85;101073.78;5076252;28;20104;-70
2022/04/09 08:44:35;;;;;;;8.05;3.72;;;;;;;9.50;55.25;101074.16;5053739;28;20078;-70
2022/04/09 08:47:01;;;;;;;10.43;4.53;;;;;;;9.82;54.62;101079.44;5085110;28;20032;-70
2022/04/09 08:49:29;;;;;;;12.00;3.70;;;;;;;9.92;54.17;101074.50;5071260;28;20020;-69
2022/04/09 08:52:00;;;;;;;17.45;4.55;;;;;;;9.69;52.28;101079.28;5075050;28;20444;-69
2022/04/09 08:54:26;;;;;;;12.93;4.30;;;;;;;9.65;52.68;101087.53;5078570;28;20027;-69
2022/04/09 08:56:52;;;;;;;11.95;3.47;;;;;;;9.75;51.22;101084.25;5076070;28;20106;-70
2022/04/09 08:59:17;;;;;;;10.38;3.25;;;;;;;9.81;51.38;101096.34;5091308;28;20319;-69
2022/04/09 09:01:43;;;;;;;14.10;3.85;;;;;;;9.69;51.24;101089.91;5069396;28;20387;-70
2022/04/09 09:04:11;;;;;;;11.52;3.97;;;;;;;9.76;50.08;101090.41;5062852;28;20105;-69
2022/04/09 09:06:40;;;;;;;7.82;3.33;;;;;;;9.60;51.78;101103.69;5083253;28;20055;-69
2022/04/09 09:09:06;;;;;;;6.37;3.47;;;;;;;9.51;48.09;101117.50;5069996;28;20021;-69
2022/04/09 09:11:48;;;;;;;8.38;3.70;;;;;;;9.69;49.42;101099.69;5070964;28;20077;-69
2022/04/09 09:14:34;;;;;;;9.10;3.67;;;;;;;9.94;49.02;101105.34;5071171;28;20103;-69
2022/04/09 09:17:03;;;;;;;9.93;3.85;;;;;;;10.06;48.33;101125.06;5072823;28;20078;-69
2022/04/09 09:19:45;;;;;;;8.35;3.42;;;;;;;10.14;47.08;101113.97;5068461;28;20031;-70
2022/04/09 09:22:11;;;;;;;6.35;3.28;;;;;;;10.32;46.99;101125.38;5072908;28;20257;-69
2022/04/09 09:24:39;;;;;;;8.18;3.50;;;;;;;10.60;47.27;101116.69;5069315;28;20035;-70
2022/04/09 09:27:06;;;;;;;9.05;3.42;;;;;;;10.75;45.88;101122.91;5078052;28;20037;-70
2022/04/09 09:29:33;;;;;;;8.18;3.22;;;;;;;10.86;46.16;101131.09;5074572;28;20344;-69
2022/04/09 09:32:04;;;;;;;7.88;2.78;;;;;;;10.88;47.24;101127.41;5069155;28;20052;-70
2022/04/09 09:34:30;;;;;;;7.93;2.88;;;;;;;10.75;46.51;101129.06;5068237;28;20061;-69
2022/04/09 09:36:56;;;;;;;6.88;2.70;;;;;;;10.48;48.80;101136.00;5072680;28;20052;-70
2022/04/09 09:39:26;;;;;;;4.55;3.08;;;;;;;10.26;49.88;101136.34;5087845;28;20111;-70
2022/04/09 09:42:03;;;;;;;6.18;2.97;;;;;;;10.25;48.65;101135.50;5070274;28;20040;-69
2022/04/09 09:44:34;;;;;;;5.75;2.60;;;;;;;10.17;49.83;101138.56;5071732;28;20115;-70
2022/04/09 09:47:08;;;;;;;4.75;2.78;;;;;;;10.11;50.17;101136.25;5073582;28;20032;-70
2022/04/09 09:49:53;;;;;;;8.70;3.03;;;;;;;10.01;47.00;101135.94;5068478;28;20490;-70
2022/04/09 09:52:23;;;;;;;8.57;3.30;;;;;;;10.29;47.17;101133.53;5069664;28;20028;-69
2022/04/09 09:55:04;;;;;;;6.78;3.20;;;;;;;10.23;46.35;101132.06;5070578;28;20082;-70
2022/04/09 09:57:30;;;;;;;6.15;2.92;;;;;;;10.37;46.51;101141.94;5077693;28;20028;-69
2022/04/09 09:59:58;;;;;;;8.63;3.38;;;;;;;10.37;46.15;101139.28;5087948;28;20032;-69
2022/04/09 10:02:25;;;;;;;7.93;3.22;;;;;;;10.48;46.26;101128.88;5073801;28;20490;-69
2022/04/09 10:04:52;;;;;;;11.75;3.20;;;;;;;10.51;44.66;101139.34;5078432;28;20027;-69
2022/04/09 10:07:18;;;;;;;6.25;2.80;;;;;;;10.32;44.28;101139.53;5082391;28;20035;-70
2022/04/09 10:09:44;;;;;;;7.78;2.70;;;;;;;10.28;43.49;101140.66;5089984;28;20386;-70
2022/04/09 10:12:23;;;;;;;8.65;2.60;;;;;;;10.58;45.04;101146.00;5075263;28;20027;-70
2022/04/09 10:14:52;;;;;;;7.33;3.00;;;;;;;10.36;42.23;101138.44;5084268;28;20024;-70
2022/04/09 10:17:19;;;;;;;8.10;2.97;;;;;;;10.25;43.25;101146.13;5079556;28;20028;-69
2022/04/09 10:19:57;;;;;;;4.50;2.65;;;;;;;10.04;42.38;101147.34;5075636;28;20033;-70
2022/04/09 10:22:31;;;;;;;5.78;2.92;;;;;;;10.37;43.20;101150.78;5085516;28;20379;-69
2022/04/09 10:25:01;;;;;;;7.22;2.65;;;;;;;10.26;41.60;101144.31;5080297;28;20020;-70
2022/04/09 10:27:37;;;;;;;9.43;3.08;;;;;;;10.52;42.87;101145.53;5073764;28;20024;-70
2022/04/09 10:30:03;;;;;;;4.78;2.38;;;;;;;10.72;42.37;101152.34;5074541;28;20069;-69
2022/04/09 10:32:46;;;;;;;8.40;2.67;;;;;;;10.59;41.90;101158.38;5080755;28;20025;-69
2022/04/09 10:35:39;;;;;;;4.72;3.17;;;;;;;10.33;40.18;101164.34;5073606;28;20401;-70
2022/04/09 10:38:08;;;;;;;5.03;2.45;;;;;;;10.21;41.16;101160.56;5080779;28;20364;-70
2022/04/09 10:40:37;;;;;;;7.22;2.47;;;;;;;10.35;40.65;101165.09;5071553;28;20040;-70
2022/04/09 10:43:04;;;;;;;5.25;2.30;;;;;;;10.09;40.40;101158.56;5076317;28;20051;-70
2022/04/09 10:45:32;;;;;;;4.15;2.30;;;;;;;10.01;40.78;101165.16;5075897;28;20020;-70
2022/04/09 10:48:28;;;;;;;6.85;3.00;;;;;;;10.01;40.99;101166.97;5079211;28;20048;-69
2022/04/09 10:50:54;;;;;;;6.95;2.95;;;;;;;9.84;41.28;101167.03;5090262;28;20040;-69
2022/04/09 10:53:22;;;;;;;4.45;2.60;;;;;;;9.93;40.07;101170.03;5082779;28;20024;-70
2022/04/09 10:56:24;;;;;;;4.35;2.35;;;;;;;10.48;39.04;101176.75;5072893;28;20048;-70
2022/04/09 10:59:16;;;;;;;8.38;2.30;;;;;;;10.91;38.57;101168.91;5080798;28;20017;-69
2022/04/09 11:01:51;;;;;;;4.32;2.15;;;;;;;11.33;37.54;101164.63;5091565;28;20051;-69
2022/04/09 11:04:43;;;;;;;3.72;1.98;;;;;;;11.59;36.82;101165.69;5078286;28;20036;-70
2022/04/09 11:07:17;;;;;;;3.85;2.00;;;;;;;11.92;36.29;101159.22;5075213;28;20032;-69
2022/04/09 11:09:49;;;;;;;3.90;1.70;;;;;;;12.27;36.32;101159.63;5077162;28;20032;-70
2022/04/09 11:12:38;;;;;;;4.50;2.17;;;;;;;12.47;35.20;101161.84;5079138;28;20028;-70
2022/04/09 11:15:09;;;;;;;3.28;2.00;;;;;;;12.21;34.63;101163.53;5073874;28;20106;-70
2022/04/09 11:17:40;;;;;;;3.83;1.85;;;;;;;11.99;32.50;101188.03;5077589;28;20395;-70
2022/04/09 11:20:11;;;;;;;4.75;1.80;;;;;;;11.83;33.57;101177.47;5073333;28;20017;-70
2022/04/09 11:22:39;;;;;;;5.68;2.22;;;;;;;11.84;34.01;101186.31;5082120;28;20735;-70
2022/04/09 11:25:12;;;;;;;3.15;1.70;;;;;;;11.55;34.02;101188.13;5072178;28;20043;-70
2022/04/09 11:27:37;;;;;;;5.40;2.20;;;;;;;11.52;34.87;101191.84;5071888;28;20386;-70